createdAt,value
2022-08-27T00:03:26.495Z,19.70
2022-08-27T00:08:33.559Z,19.60
2022-08-27T00:13:43.055Z,19.60
2022-08-27T00:18:55.545Z,19.60
2022-08-27T00:24:02.541Z,19.70
2022-08-27T00:29:13.986Z,19.80
2022-08-27T00:34:24.415Z,19.80
2022-08-27T00:39:31.455Z,19.70
2022-08-27T00:44:39.295Z,19.60
2022-08-27T00:49:55.155Z,19.60
2022-08-27T00:55:09.865Z,19.50
2022-08-27T01:00:20.389Z,19.50
2022-08-27T01:05:28.475Z,19.50
2022-08-27T01:10:38.175Z,19.70
2022-08-27T01:15:45.405Z,19.60
2022-08-27T01:21:09.375Z,19.80
2022-08-27T01:26:21.338Z,19.70
2022-08-27T01:31:29.764Z,19.70
2022-08-27T01:36:37.094Z,19.50
2022-08-27T01:41:44.094Z,19.60
2022-08-27T01:46:51.192Z,19.50
2022-08-27T01:51:58.184Z,19.40
2022-08-27T01:57:05.597Z,19.50
2022-08-27T02:02:14.836Z,19.40
2022-08-27T02:07:21.814Z,19.50
2022-08-27T02:12:28.865Z,19.60
2022-08-27T02:17:36.345Z,19.50
2022-08-27T02:22:44.267Z,19.40
2022-08-27T02:27:53.076Z,19.30
2022-08-27T02:33:01.506Z,19.50
2022-08-27T02:38:09.667Z,19.40
2022-08-27T02:43:25.273Z,19.40
2022-08-27T02:48:25.955Z,19.50
2022-08-27T02:53:33.136Z,19.40
2022-08-27T02:58:41.859Z,19.40
2022-08-27T03:03:53.362Z,19.40
2022-08-27T03:09:02.426Z,19.20
2022-08-27T03:14:10.023Z,19.20
2022-08-27T03:19:23.812Z,19.00
2022-08-27T03:24:25.595Z,19.10
2022-08-27T03:29:35.462Z,19.00
2022-08-27T03:34:42.845Z,19.10
2022-08-27T03:39:51.152Z,19.00
2022-08-27T03:44:58.595Z,19.10
2022-08-27T03:50:07.308Z,19.10
2022-08-27T03:55:15.235Z,19.00
2022-08-27T04:00:25.737Z,18.90
2022-08-27T04:05:34.335Z,18.90
2022-08-27T04:10:46.266Z,19.00
2022-08-27T04:15:55.913Z,19.00
2022-08-27T04:21:13.807Z,18.90
2022-08-27T04:26:21.557Z,19.00
2022-08-27T04:31:30.667Z,18.90
2022-08-27T04:36:39.285Z,19.00
2022-08-27T04:41:46.475Z,18.90
2022-08-27T04:46:58.582Z,18.70
2022-08-27T04:52:07.436Z,18.90
2022-08-27T04:57:14.987Z,18.80
2022-08-27T05:02:22.537Z,18.80
2022-08-27T05:07:29.725Z,18.80
2022-08-27T05:12:36.877Z,18.90
2022-08-27T05:17:44.555Z,19.10
2022-08-27T05:22:51.966Z,19.20
2022-08-27T05:27:59.282Z,19.20
2022-08-27T05:33:08.124Z,19.10
2022-08-27T05:38:16.346Z,19.10
2022-08-27T05:43:24.213Z,19.20
2022-08-27T05:48:33.097Z,19.40
2022-08-27T05:53:40.796Z,19.60
2022-08-27T05:59:06.461Z,19.60
2022-08-27T06:04:18.110Z,19.70
2022-08-27T06:09:32.371Z,19.80
2022-08-27T06:14:41.495Z,20.00
2022-08-27T06:19:49.441Z,20.00
2022-08-27T06:24:58.593Z,20.00
2022-08-27T06:30:06.566Z,20.10
2022-08-27T06:35:13.614Z,20.30
2022-08-27T06:40:20.673Z,20.40
2022-08-27T06:45:31.053Z,20.60
2022-08-27T06:50:45.445Z,20.90
2022-08-27T06:55:53.775Z,21.10
2022-08-27T07:01:02.880Z,21.20
2022-08-27T07:06:10.065Z,21.50
2022-08-27T07:11:17.768Z,21.70
2022-08-27T07:16:27.208Z,21.90
2022-08-27T07:21:36.084Z,22.00
2022-08-27T07:26:46.205Z,22.00
2022-08-27T07:31:54.986Z,21.80
2022-08-27T07:37:02.047Z,21.60
2022-08-27T07:42:27.066Z,21.60
2022-08-27T07:47:36.036Z,21.90
2022-08-27T07:52:44.496Z,22.00
2022-08-27T07:57:51.665Z,22.20
2022-08-27T08:02:58.743Z,22.50
2022-08-27T08:08:06.055Z,22.70
2022-08-27T08:13:13.131Z,22.80
2022-08-27T08:18:21.196Z,22.50
2022-08-27T08:23:28.885Z,22.30
2022-08-27T08:28:36.104Z,22.30
2022-08-27T08:33:43.705Z,22.20
2022-08-27T08:38:53.196Z,22.20
2022-08-27T08:44:05.497Z,22.30
2022-08-27T08:49:38.408Z,22.20
2022-08-27T08:54:46.015Z,22.10
2022-08-27T09:00:00.526Z,21.70
2022-08-27T09:05:10.415Z,21.60
2022-08-27T09:10:45.664Z,21.60
2022-08-27T09:15:58.185Z,21.60
2022-08-27T09:21:43.926Z,21.60
2022-08-27T09:26:50.978Z,21.60
2022-08-27T09:32:02.580Z,21.60
2022-08-27T09:37:16.316Z,21.70
2022-08-27T09:42:39.616Z,21.70
2022-08-27T09:48:09.047Z,21.70
2022-08-27T09:53:32.535Z,21.90
2022-08-27T09:58:52.865Z,22.00
2022-08-27T10:04:12.725Z,22.00
2022-08-27T10:09:37.615Z,22.00
2022-08-27T10:14:51.724Z,22.00
2022-08-27T10:20:08.872Z,22.00
2022-08-27T10:25:29.256Z,21.90
2022-08-27T10:30:52.217Z,22.00
2022-08-27T10:36:10.745Z,21.90
2022-08-27T10:41:34.064Z,22.00
2022-08-27T10:47:18.211Z,22.10
2022-08-27T10:52:33.825Z,22.30
2022-08-27T10:58:06.545Z,22.60
2022-08-27T11:03:17.793Z,23.00
2022-08-27T11:08:44.974Z,23.90
2022-08-27T11:14:00.957Z,24.80
2022-08-27T11:19:24.824Z,25.60
2022-08-27T11:24:43.159Z,25.80
2022-08-27T11:30:09.784Z,26.30
2022-08-27T11:35:46.265Z,26.00
2022-08-27T11:41:23.824Z,26.00
2022-08-27T11:46:35.185Z,25.60
2022-08-27T11:51:43.615Z,26.60
2022-08-27T11:56:52.565Z,26.10
2022-08-27T12:02:15.355Z,25.50
2022-08-27T12:07:27.893Z,25.60
2022-08-27T12:13:13.395Z,25.90
2022-08-27T12:18:39.404Z,25.60
2022-08-27T12:24:21.613Z,25.70
2022-08-27T12:29:45.245Z,26.10
2022-08-27T12:35:13.175Z,26.70
2022-08-27T12:40:41.039Z,26.60
2022-08-27T12:45:55.833Z,26.20
2022-08-27T12:51:09.917Z,26.10
2022-08-27T12:56:35.785Z,26.40
2022-08-27T13:02:01.884Z,26.30
2022-08-27T13:07:09.084Z,25.40
2022-08-27T13:12:20.579Z,25.20
2022-08-27T13:17:28.558Z,25.20
2022-08-27T13:22:41.345Z,24.80
2022-08-27T13:27:55.105Z,24.70
2022-08-27T13:33:03.660Z,24.60
2022-08-27T13:38:17.455Z,24.50
2022-08-27T13:43:30.618Z,24.20
2022-08-27T13:48:43.118Z,24.00
2022-08-27T13:54:11.105Z,24.00
2022-08-27T13:59:30.344Z,24.00
2022-08-27T14:04:47.696Z,23.90
2022-08-27T14:10:18.235Z,23.70
2022-08-27T14:15:47.588Z,23.50
2022-08-27T14:20:56.195Z,23.60
2022-08-27T14:26:04.065Z,23.50
2022-08-27T14:31:13.790Z,22.80
2022-08-27T14:36:24.386Z,20.80
2022-08-27T14:41:33.898Z,19.80
2022-08-27T14:46:43.154Z,19.80
2022-08-27T14:51:51.725Z,19.50
2022-08-27T14:56:59.504Z,19.10
2022-08-27T15:02:14.395Z,18.60
2022-08-27T15:07:22.812Z,17.80
2022-08-27T15:12:29.997Z,17.30
2022-08-27T15:17:37.056Z,17.80
2022-08-27T15:22:47.397Z,17.50
2022-08-27T15:27:55.076Z,17.70
2022-08-27T15:33:05.965Z,17.50
2022-08-27T15:38:13.764Z,17.80
2022-08-27T15:43:21.165Z,18.10
2022-08-27T15:48:28.291Z,18.20
2022-08-27T15:53:35.805Z,18.00
2022-08-27T15:58:42.806Z,18.10
2022-08-27T16:03:51.566Z,18.10
2022-08-27T16:08:59.613Z,18.10
2022-08-27T16:14:08.452Z,18.00
2022-08-27T16:19:16.853Z,18.10
2022-08-27T16:24:24.997Z,18.20
2022-08-27T16:29:32.445Z,18.40
2022-08-27T16:34:39.338Z,18.40
2022-08-27T16:39:46.655Z,17.90
2022-08-27T16:44:54.668Z,17.80
2022-08-27T16:50:24.355Z,17.50
2022-08-27T16:55:27.627Z,17.50
2022-08-27T17:00:36.726Z,17.50
2022-08-27T17:05:43.979Z,17.60
2022-08-27T17:10:54.719Z,17.80
2022-08-27T17:16:10.604Z,17.80
2022-08-27T17:21:20.747Z,17.90
2022-08-27T17:26:28.626Z,18.00
2022-08-27T17:31:41.567Z,17.90
2022-08-27T17:36:48.554Z,17.80
2022-08-27T17:41:56.526Z,17.80
2022-08-27T17:47:07.471Z,17.80
2022-08-27T17:52:17.218Z,17.90
2022-08-27T17:57:28.536Z,17.90
2022-08-27T18:02:48.786Z,17.80
2022-08-27T18:07:58.117Z,17.90
2022-08-27T18:13:07.229Z,17.70
2022-08-27T18:18:16.766Z,17.90
2022-08-27T18:23:23.984Z,17.80
2022-08-27T18:28:32.861Z,17.70
2022-08-27T18:33:40.386Z,17.70
2022-08-27T18:38:47.625Z,17.70
2022-08-27T18:43:55.075Z,17.60
2022-08-27T18:49:02.785Z,17.60
2022-08-27T18:54:10.490Z,17.50
2022-08-27T18:59:20.636Z,17.70
2022-08-27T19:04:31.336Z,17.80
2022-08-27T19:09:40.549Z,17.60
2022-08-27T19:14:49.094Z,17.50
2022-08-27T19:20:00.530Z,17.60
2022-08-27T19:25:09.005Z,17.50
2022-08-27T19:30:17.965Z,17.50
2022-08-27T19:35:25.223Z,17.50
2022-08-27T19:40:32.274Z,17.40
2022-08-27T19:45:40.709Z,17.40
2022-08-27T19:50:47.835Z,17.60
2022-08-27T19:55:56.805Z,17.40
2022-08-27T20:01:07.061Z,17.60
2022-08-27T20:06:14.494Z,17.50
2022-08-27T20:11:22.163Z,17.60
2022-08-27T20:16:32.872Z,17.70
2022-08-27T20:21:41.645Z,17.70
2022-08-27T20:26:49.057Z,17.70
2022-08-27T20:32:01.791Z,17.60
2022-08-27T20:37:08.893Z,17.60
2022-08-27T20:42:16.316Z,17.50
2022-08-27T20:47:26.434Z,17.50
2022-08-27T20:52:33.538Z,17.60
2022-08-27T20:57:42.735Z,17.70
2022-08-27T21:02:50.027Z,17.40
2022-08-27T21:07:57.154Z,17.30
2022-08-27T21:13:06.137Z,17.20
2022-08-27T21:18:13.991Z,17.40
2022-08-27T21:23:21.266Z,17.40
2022-08-27T21:28:28.504Z,17.30
2022-08-27T21:33:36.210Z,17.30
2022-08-27T21:38:44.819Z,17.40
2022-08-27T21:43:52.564Z,17.30
2022-08-27T21:48:59.685Z,17.30
2022-08-27T21:54:06.855Z,17.40
2022-08-27T21:59:14.874Z,17.40
2022-08-27T22:04:21.866Z,17.30
2022-08-27T22:09:30.654Z,17.30
2022-08-27T22:14:38.243Z,17.10
2022-08-27T22:19:45.703Z,17.10
2022-08-27T22:24:53.495Z,17.10
2022-08-27T22:30:00.923Z,17.10
2022-08-27T22:35:09.859Z,17.10
2022-08-27T22:40:21.019Z,17.10
2022-08-27T22:45:30.338Z,17.10
2022-08-27T22:50:37.936Z,17.00
2022-08-27T22:55:49.896Z,17.10
2022-08-27T23:00:55.304Z,16.90
2022-08-27T23:06:02.607Z,16.80
2022-08-27T23:11:09.614Z,16.80
2022-08-27T23:16:17.494Z,17.00
2022-08-27T23:21:24.606Z,16.80
2022-08-27T23:26:48.805Z,16.80
2022-08-27T23:31:56.784Z,16.70
2022-08-27T23:37:05.140Z,16.60
2022-08-27T23:42:14.877Z,16.50
2022-08-27T23:47:22.135Z,16.50
2022-08-27T23:52:29.261Z,16.60
2022-08-27T23:57:36.356Z,16.60
